sensor_id;sensor_type;location;lat;lon;timestamp;temperature;humidity
72114;SHT31;59989;46.220;19.888;2023-10-08T00:01:09;16.65;70.77
72114;SHT31;59989;46.220;19.888;2023-10-08T00:04:17;16.66;70.95
72114;SHT31;59989;46.220;19.888;2023-10-08T00:07:22;16.73;70.94
72114;SHT31;59989;46.220;19.888;2023-10-08T00:10:28;16.72;71.08
72114;SHT31;59989;46.220;19.888;2023-10-08T00:13:31;16.72;71.39
72114;SHT31;59989;46.220;19.888;2023-10-08T00:16:33;16.72;71.53
72114;SHT31;59989;46.220;19.888;2023-10-08T00:19:36;16.70;71.77
72114;SHT31;59989;46.220;19.888;2023-10-08T00:22:40;16.72;71.72
72114;SHT31;59989;46.220;19.888;2023-10-08T00:25:43;16.72;71.71
72114;SHT31;59989;46.220;19.888;2023-10-08T00:28:49;16.75;71.74
72114;SHT31;59989;46.220;19.888;2023-10-08T00:31:54;16.77;71.74
72114;SHT31;59989;46.220;19.888;2023-10-08T00:34:59;16.80;71.67
72114;SHT31;59989;46.220;19.888;2023-10-08T00:38:02;16.75;71.89
72114;SHT31;59989;46.220;19.888;2023-10-08T00:41:15;16.81;71.74
72114;SHT31;59989;46.220;19.888;2023-10-08T00:44:17;16.79;71.69
72114;SHT31;59989;46.220;19.888;2023-10-08T00:47:40;16.81;71.64
72114;SHT31;59989;46.220;19.888;2023-10-08T00:50:46;16.75;71.85
72114;SHT31;59989;46.220;19.888;2023-10-08T00:56:54;16.65;72.37
72114;SHT31;59989;46.220;19.888;2023-10-08T01:00:00;16.48;73.25
72114;SHT31;59989;46.220;19.888;2023-10-08T01:03:05;16.31;73.55
72114;SHT31;59989;46.220;19.888;2023-10-08T01:06:18;16.26;73.63
72114;SHT31;59989;46.220;19.888;2023-10-08T01:09:20;16.26;73.90
72114;SHT31;59989;46.220;19.888;2023-10-08T01:12:29;16.33;73.78
72114;SHT31;59989;46.220;19.888;2023-10-08T01:15:38;16.44;73.18
72114;SHT31;59989;46.220;19.888;2023-10-08T01:18:44;16.51;72.93
72114;SHT31;59989;46.220;19.888;2023-10-08T01:21:52;16.73;71.91
72114;SHT31;59989;46.220;19.888;2023-10-08T01:24:54;16.73;71.96
72114;SHT31;59989;46.220;19.888;2023-10-08T01:27:58;16.79;71.40
72114;SHT31;59989;46.220;19.888;2023-10-08T01:31:04;16.77;71.37
72114;SHT31;59989;46.220;19.888;2023-10-08T01:34:07;16.79;71.11
72114;SHT31;59989;46.220;19.888;2023-10-08T01:37:09;16.83;71.04
72114;SHT31;59989;46.220;19.888;2023-10-08T01:40:14;16.73;71.40
72114;SHT31;59989;46.220;19.888;2023-10-08T01:43:18;16.70;71.49
72114;SHT31;59989;46.220;19.888;2023-10-08T01:46:21;16.70;71.40
72114;SHT31;59989;46.220;19.888;2023-10-08T01:49:24;16.69;71.45
72114;SHT31;59989;46.220;19.888;2023-10-08T01:52:34;16.68;71.59
72114;SHT31;59989;46.220;19.888;2023-10-08T01:55:37;16.68;71.62
72114;SHT31;59989;46.220;19.888;2023-10-08T01:58:54;16.69;71.63
72114;SHT31;59989;46.220;19.888;2023-10-08T02:01:58;16.66;71.65
72114;SHT31;59989;46.220;19.888;2023-10-08T02:05:00;16.66;71.59
72114;SHT31;59989;46.220;19.888;2023-10-08T02:08:03;16.68;71.78
72114;SHT31;59989;46.220;19.888;2023-10-08T02:11:06;16.73;71.72
72114;SHT31;59989;46.220;19.888;2023-10-08T02:14:10;16.70;71.91
72114;SHT31;59989;46.220;19.888;2023-10-08T02:17:14;16.77;71.87
72114;SHT31;59989;46.220;19.888;2023-10-08T02:20:17;16.83;71.60
72114;SHT31;59989;46.220;19.888;2023-10-08T02:23:21;16.81;71.98
72114;SHT31;59989;46.220;19.888;2023-10-08T02:26:24;16.76;71.84
72114;SHT31;59989;46.220;19.888;2023-10-08T02:29:29;16.79;72.42
72114;SHT31;59989;46.220;19.888;2023-10-08T02:32:32;16.86;72.02
72114;SHT31;59989;46.220;19.888;2023-10-08T02:35:35;16.89;72.11
72114;SHT31;59989;46.220;19.888;2023-10-08T02:38:38;16.86;71.73
72114;SHT31;59989;46.220;19.888;2023-10-08T02:41:43;16.84;71.88
72114;SHT31;59989;46.220;19.888;2023-10-08T02:44:48;16.89;71.67
72114;SHT31;59989;46.220;19.888;2023-10-08T02:47:51;16.91;71.58
72114;SHT31;59989;46.220;19.888;2023-10-08T02:50:55;16.91;71.60
72114;SHT31;59989;46.220;19.888;2023-10-08T02:54:09;16.90;71.43
72114;SHT31;59989;46.220;19.888;2023-10-08T02:57:18;16.94;71.21
72114;SHT31;59989;46.220;19.888;2023-10-08T03:00:24;16.89;71.45
72114;SHT31;59989;46.220;19.888;2023-10-08T03:03:32;16.89;71.78
72114;SHT31;59989;46.220;19.888;2023-10-08T03:06:35;16.79;71.75
72114;SHT31;59989;46.220;19.888;2023-10-08T03:09:41;16.79;71.89
72114;SHT31;59989;46.220;19.888;2023-10-08T03:12:45;16.70;72.27
72114;SHT31;59989;46.220;19.888;2023-10-08T03:15:49;16.68;72.12
72114;SHT31;59989;46.220;19.888;2023-10-08T03:19:03;16.73;71.36
72114;SHT31;59989;46.220;19.888;2023-10-08T03:22:08;16.66;71.71
72114;SHT31;59989;46.220;19.888;2023-10-08T03:25:13;16.65;72.05
72114;SHT31;59989;46.220;19.888;2023-10-08T03:28:19;16.66;71.88
72114;SHT31;59989;46.220;19.888;2023-10-08T03:31:22;16.69;71.50
72114;SHT31;59989;46.220;19.888;2023-10-08T03:34:34;16.70;71.51
72114;SHT31;59989;46.220;19.888;2023-10-08T03:37:38;16.73;71.15
72114;SHT31;59989;46.220;19.888;2023-10-08T03:40:46;16.81;70.86
72114;SHT31;59989;46.220;19.888;2023-10-08T03:43:51;16.97;70.60
72114;SHT31;59989;46.220;19.888;2023-10-08T03:47:15;16.89;70.73
72114;SHT31;59989;46.220;19.888;2023-10-08T03:50:21;17.02;70.90
72114;SHT31;59989;46.220;19.888;2023-10-08T03:53:35;17.03;70.42
72114;SHT31;59989;46.220;19.888;2023-10-08T03:56:46;17.21;69.29
72114;SHT31;59989;46.220;19.888;2023-10-08T03:59:48;17.31;69.13
72114;SHT31;59989;46.220;19.888;2023-10-08T04:02:51;17.38;68.88
72114;SHT31;59989;46.220;19.888;2023-10-08T04:05:58;17.42;69.01
72114;SHT31;59989;46.220;19.888;2023-10-08T04:09:17;17.42;69.04
72114;SHT31;59989;46.220;19.888;2023-10-08T04:12:23;17.41;69.16
72114;SHT31;59989;46.220;19.888;2023-10-08T04:15:29;17.42;69.04
72114;SHT31;59989;46.220;19.888;2023-10-08T04:18:31;17.45;68.95
72114;SHT31;59989;46.220;19.888;2023-10-08T04:21:40;17.49;68.79
72114;SHT31;59989;46.220;19.888;2023-10-08T04:24:45;17.52;68.62
72114;SHT31;59989;46.220;19.888;2023-10-08T04:27:48;17.58;68.58
72114;SHT31;59989;46.220;19.888;2023-10-08T04:30:52;17.55;68.78
72114;SHT31;59989;46.220;19.888;2023-10-08T04:33:55;17.55;68.94
72114;SHT31;59989;46.220;19.888;2023-10-08T04:37:03;17.55;68.97
72114;SHT31;59989;46.220;19.888;2023-10-08T04:40:15;17.55;69.13
72114;SHT31;59989;46.220;19.888;2023-10-08T04:43:25;17.54;69.02
72114;SHT31;59989;46.220;19.888;2023-10-08T04:46:30;17.48;69.80
72114;SHT31;59989;46.220;19.888;2023-10-08T04:49:41;17.49;69.30
72114;SHT31;59989;46.220;19.888;2023-10-08T04:52:47;17.61;68.65
72114;SHT31;59989;46.220;19.888;2023-10-08T04:56:03;17.64;68.41
72114;SHT31;59989;46.220;19.888;2023-10-08T04:59:09;17.72;68.22
72114;SHT31;59989;46.220;19.888;2023-10-08T05:02:14;17.75;67.95
72114;SHT31;59989;46.220;19.888;2023-10-08T05:05:35;17.81;67.75
72114;SHT31;59989;46.220;19.888;2023-10-08T05:08:57;17.89;67.57
72114;SHT31;59989;46.220;19.888;2023-10-08T05:12:13;17.99;66.61
72114;SHT31;59989;46.220;19.888;2023-10-08T05:15:36;17.97;67.22
72114;SHT31;59989;46.220;19.888;2023-10-08T05:18:44;18.02;66.95
72114;SHT31;59989;46.220;19.888;2023-10-08T05:22:05;18.06;66.60
72114;SHT31;59989;46.220;19.888;2023-10-08T05:25:43;18.16;66.64
72114;SHT31;59989;46.220;19.888;2023-10-08T05:29:01;18.17;66.58
72114;SHT31;59989;46.220;19.888;2023-10-08T05:32:04;18.26;66.47
72114;SHT31;59989;46.220;19.888;2023-10-08T05:35:25;18.26;66.49
72114;SHT31;59989;46.220;19.888;2023-10-08T05:38:51;18.30;66.39
72114;SHT31;59989;46.220;19.888;2023-10-08T05:42:03;18.27;66.58
72114;SHT31;59989;46.220;19.888;2023-10-08T05:45:22;18.26;66.28
72114;SHT31;59989;46.220;19.888;2023-10-08T05:48:37;18.26;66.55
72114;SHT31;59989;46.220;19.888;2023-10-08T05:51:47;18.18;66.66
72114;SHT31;59989;46.220;19.888;2023-10-08T05:54:50;18.26;66.70
72114;SHT31;59989;46.220;19.888;2023-10-08T05:58:22;18.38;66.32
72114;SHT31;59989;46.220;19.888;2023-10-08T06:01:24;18.47;66.34
72114;SHT31;59989;46.220;19.888;2023-10-08T06:04:42;18.82;65.08
72114;SHT31;59989;46.220;19.888;2023-10-08T06:07:55;19.12;64.36
72114;SHT31;59989;46.220;19.888;2023-10-08T06:10:59;19.33;63.74
72114;SHT31;59989;46.220;19.888;2023-10-08T06:14:19;19.43;63.71
72114;SHT31;59989;46.220;19.888;2023-10-08T06:17:50;19.50;63.26
72114;SHT31;59989;46.220;19.888;2023-10-08T06:21:07;19.49;63.29
72114;SHT31;59989;46.220;19.888;2023-10-08T06:24:14;19.47;63.05
72114;SHT31;59989;46.220;19.888;2023-10-08T06:27:19;19.47;63.47
72114;SHT31;59989;46.220;19.888;2023-10-08T06:30:23;19.40;63.52
72114;SHT31;59989;46.220;19.888;2023-10-08T06:33:27;19.39;63.49
72114;SHT31;59989;46.220;19.888;2023-10-08T06:36:33;19.60;62.99
72114;SHT31;59989;46.220;19.888;2023-10-08T06:39:36;19.77;62.74
72114;SHT31;59989;46.220;19.888;2023-10-08T06:42:51;19.94;62.00
72114;SHT31;59989;46.220;19.888;2023-10-08T06:45:54;20.09;61.09
72114;SHT31;59989;46.220;19.888;2023-10-08T06:49:02;20.29;59.75
72114;SHT31;59989;46.220;19.888;2023-10-08T06:52:07;20.39;58.96
72114;SHT31;59989;46.220;19.888;2023-10-08T06:55:13;20.42;59.55
72114;SHT31;59989;46.220;19.888;2023-10-08T06:58:20;20.46;59.38
72114;SHT31;59989;46.220;19.888;2023-10-08T07:01:22;20.48;59.70
72114;SHT31;59989;46.220;19.888;2023-10-08T07:04:27;20.59;58.99
72114;SHT31;59989;46.220;19.888;2023-10-08T07:07:32;20.66;58.79
72114;SHT31;59989;46.220;19.888;2023-10-08T07:10:34;20.80;57.92
72114;SHT31;59989;46.220;19.888;2023-10-08T07:13:37;20.84;58.22
72114;SHT31;59989;46.220;19.888;2023-10-08T07:16:41;20.90;57.71
72114;SHT31;59989;46.220;19.888;2023-10-08T07:19:44;21.04;56.58
72114;SHT31;59989;46.220;19.888;2023-10-08T07:22:49;21.15;56.84
72114;SHT31;59989;46.220;19.888;2023-10-08T07:25:59;21.24;57.39
72114;SHT31;59989;46.220;19.888;2023-10-08T07:29:14;21.44;55.74
72114;SHT31;59989;46.220;19.888;2023-10-08T07:32:21;21.67;55.65
72114;SHT31;59989;46.220;19.888;2023-10-08T07:35:24;21.67;55.35
72114;SHT31;59989;46.220;19.888;2023-10-08T07:38:28;21.67;55.50
72114;SHT31;59989;46.220;19.888;2023-10-08T07:41:31;21.76;54.69
72114;SHT31;59989;46.220;19.888;2023-10-08T07:44:34;21.97;55.36
72114;SHT31;59989;46.220;19.888;2023-10-08T07:47:41;22.29;54.60
72114;SHT31;59989;46.220;19.888;2023-10-08T07:50:45;22.57;54.23
72114;SHT31;59989;46.220;19.888;2023-10-08T07:53:52;22.84;53.21
72114;SHT31;59989;46.220;19.888;2023-10-08T07:57:03;22.92;53.13
72114;SHT31;59989;46.220;19.888;2023-10-08T08:00:14;23.09;52.45
72114;SHT31;59989;46.220;19.888;2023-10-08T08:03:21;23.15;51.57
72114;SHT31;59989;46.220;19.888;2023-10-08T08:06:23;23.19;50.87
72114;SHT31;59989;46.220;19.888;2023-10-08T08:09:28;23.18;51.69
72114;SHT31;59989;46.220;19.888;2023-10-08T08:12:31;23.39;51.05
72114;SHT31;59989;46.220;19.888;2023-10-08T08:15:37;23.63;51.13
72114;SHT31;59989;46.220;19.888;2023-10-08T08:18:51;23.82;51.01
72114;SHT31;59989;46.220;19.888;2023-10-08T08:21:54;24.02;51.06
72114;SHT31;59989;46.220;19.888;2023-10-08T08:24:57;23.73;50.71
72114;SHT31;59989;46.220;19.888;2023-10-08T08:28:18;23.53;51.30
72114;SHT31;59989;46.220;19.888;2023-10-08T08:31:24;23.68;51.95
72114;SHT31;59989;46.220;19.888;2023-10-08T08:34:27;23.74;50.57
72114;SHT31;59989;46.220;19.888;2023-10-08T08:37:30;23.67;50.49
72114;SHT31;59989;46.220;19.888;2023-10-08T08:40:33;23.58;50.83
72114;SHT31;59989;46.220;19.888;2023-10-08T08:43:36;23.47;51.03
72114;SHT31;59989;46.220;19.888;2023-10-08T08:46:39;23.45;50.13
72114;SHT31;59989;46.220;19.888;2023-10-08T08:49:42;23.49;49.92
72114;SHT31;59989;46.220;19.888;2023-10-08T08:52:45;23.51;50.48
72114;SHT31;59989;46.220;19.888;2023-10-08T08:55:50;23.40;50.41
72114;SHT31;59989;46.220;19.888;2023-10-08T08:58:55;23.18;50.51
72114;SHT31;59989;46.220;19.888;2023-10-08T09:01:58;23.24;50.95
72114;SHT31;59989;46.220;19.888;2023-10-08T09:05:02;23.18;50.98
72114;SHT31;59989;46.220;19.888;2023-10-08T09:08:15;23.37;50.67
72114;SHT31;59989;46.220;19.888;2023-10-08T09:11:20;23.95;50.64
72114;SHT31;59989;46.220;19.888;2023-10-08T09:14:24;24.05;50.32
72114;SHT31;59989;46.220;19.888;2023-10-08T09:17:34;23.98;50.30
72114;SHT31;59989;46.220;19.888;2023-10-08T09:20:37;23.64;50.45
72114;SHT31;59989;46.220;19.888;2023-10-08T09:23:50;23.61;51.01
72114;SHT31;59989;46.220;19.888;2023-10-08T09:26:54;23.75;50.93
72114;SHT31;59989;46.220;19.888;2023-10-08T09:29:57;23.94;50.19
72114;SHT31;59989;46.220;19.888;2023-10-08T09:33:02;24.29;49.32
72114;SHT31;59989;46.220;19.888;2023-10-08T09:36:05;24.46;48.95
72114;SHT31;59989;46.220;19.888;2023-10-08T09:39:10;24.77;48.26
72114;SHT31;59989;46.220;19.888;2023-10-08T09:42:22;24.70;48.25
72114;SHT31;59989;46.220;19.888;2023-10-08T09:45:27;24.39;48.79
72114;SHT31;59989;46.220;19.888;2023-10-08T09:48:36;24.37;48.57
72114;SHT31;59989;46.220;19.888;2023-10-08T09:51:40;24.46;48.14
72114;SHT31;59989;46.220;19.888;2023-10-08T09:54:44;24.95;48.14
72114;SHT31;59989;46.220;19.888;2023-10-08T09:57:49;24.80;48.04
72114;SHT31;59989;46.220;19.888;2023-10-08T10:00:58;25.43;47.73
72114;SHT31;59989;46.220;19.888;2023-10-08T10:04:05;24.66;47.86
72114;SHT31;59989;46.220;19.888;2023-10-08T10:07:12;24.63;48.10
72114;SHT31;59989;46.220;19.888;2023-10-08T10:10:26;24.83;47.90
72114;SHT31;59989;46.220;19.888;2023-10-08T10:13:34;24.67;48.19
72114;SHT31;59989;46.220;19.888;2023-10-08T10:16:37;24.59;48.75
72114;SHT31;59989;46.220;19.888;2023-10-08T10:19:42;24.94;47.84
72114;SHT31;59989;46.220;19.888;2023-10-08T10:22:48;24.93;47.80
72114;SHT31;59989;46.220;19.888;2023-10-08T10:25:51;24.80;48.15
72114;SHT31;59989;46.220;19.888;2023-10-08T10:32:17;25.01;48.44
72114;SHT31;59989;46.220;19.888;2023-10-08T10:35:21;25.46;47.87
72114;SHT31;59989;46.220;19.888;2023-10-08T10:38:23;26.34;46.96
72114;SHT31;59989;46.220;19.888;2023-10-08T10:41:29;26.37;46.31
72114;SHT31;59989;46.220;19.888;2023-10-08T10:44:33;25.57;47.45
72114;SHT31;59989;46.220;19.888;2023-10-08T10:47:38;24.55;49.24
72114;SHT31;59989;46.220;19.888;2023-10-08T10:50:50;24.39;49.93
72114;SHT31;59989;46.220;19.888;2023-10-08T10:53:59;24.25;50.23
72114;SHT31;59989;46.220;19.888;2023-10-08T10:57:11;24.14;50.89
72114;SHT31;59989;46.220;19.888;2023-10-08T11:00:20;24.00;50.84
72114;SHT31;59989;46.220;19.888;2023-10-08T11:03:35;24.15;51.11
72114;SHT31;59989;46.220;19.888;2023-10-08T11:06:38;24.56;50.10
72114;SHT31;59989;46.220;19.888;2023-10-08T11:09:41;25.06;49.39
72114;SHT31;59989;46.220;19.888;2023-10-08T11:12:46;25.15;49.04
72114;SHT31;59989;46.220;19.888;2023-10-08T11:15:55;25.01;49.22
72114;SHT31;59989;46.220;19.888;2023-10-08T11:19:00;25.11;49.86
72114;SHT31;59989;46.220;19.888;2023-10-08T11:22:09;25.37;48.74
72114;SHT31;59989;46.220;19.888;2023-10-08T11:25:24;25.15;49.77
72114;SHT31;59989;46.220;19.888;2023-10-08T11:28:35;25.00;49.03
72114;SHT31;59989;46.220;19.888;2023-10-08T11:31:44;24.87;49.46
72114;SHT31;59989;46.220;19.888;2023-10-08T11:34:47;25.14;48.74
72114;SHT31;59989;46.220;19.888;2023-10-08T11:37:58;25.14;49.11
72114;SHT31;59989;46.220;19.888;2023-10-08T11:41:12;24.84;49.57
72114;SHT31;59989;46.220;19.888;2023-10-08T11:44:22;25.24;49.57
72114;SHT31;59989;46.220;19.888;2023-10-08T11:47:26;25.28;49.18
72114;SHT31;59989;46.220;19.888;2023-10-08T11:50:35;25.01;49.18
72114;SHT31;59989;46.220;19.888;2023-10-08T11:53:38;24.83;49.64
72114;SHT31;59989;46.220;19.888;2023-10-08T11:56:40;24.88;49.74
72114;SHT31;59989;46.220;19.888;2023-10-08T11:59:43;24.49;50.63
72114;SHT31;59989;46.220;19.888;2023-10-08T12:02:47;24.46;51.01
72114;SHT31;59989;46.220;19.888;2023-10-08T12:05:50;24.57;51.01
72114;SHT31;59989;46.220;19.888;2023-10-08T12:09:01;24.40;50.90
72114;SHT31;59989;46.220;19.888;2023-10-08T12:12:14;24.19;51.10
72114;SHT31;59989;46.220;19.888;2023-10-08T12:15:22;24.18;51.50
72114;SHT31;59989;46.220;19.888;2023-10-08T12:18:24;24.08;51.54
72114;SHT31;59989;46.220;19.888;2023-10-08T12:21:28;24.02;51.69
72114;SHT31;59989;46.220;19.888;2023-10-08T12:24:35;23.87;51.80
72114;SHT31;59989;46.220;19.888;2023-10-08T12:27:38;23.98;51.71
72114;SHT31;59989;46.220;19.888;2023-10-08T12:30:41;24.53;50.80
72114;SHT31;59989;46.220;19.888;2023-10-08T12:33:45;24.60;50.79
72114;SHT31;59989;46.220;19.888;2023-10-08T12:36:47;24.93;49.91
72114;SHT31;59989;46.220;19.888;2023-10-08T12:39:50;25.15;49.89
72114;SHT31;59989;46.220;19.888;2023-10-08T12:43:03;25.24;49.49
72114;SHT31;59989;46.220;19.888;2023-10-08T12:46:07;25.49;49.19
72114;SHT31;59989;46.220;19.888;2023-10-08T12:49:13;25.20;49.56
72114;SHT31;59989;46.220;19.888;2023-10-08T12:52:15;24.53;50.84
72114;SHT31;59989;46.220;19.888;2023-10-08T12:55:19;24.28;51.99
72114;SHT31;59989;46.220;19.888;2023-10-08T12:58:26;24.26;52.02
72114;SHT31;59989;46.220;19.888;2023-10-08T13:01:35;24.39;52.25
72114;SHT31;59989;46.220;19.888;2023-10-08T13:04:38;23.79;53.00
72114;SHT31;59989;46.220;19.888;2023-10-08T13:07:43;24.42;52.75
72114;SHT31;59989;46.220;19.888;2023-10-08T13:10:48;24.64;51.93
72114;SHT31;59989;46.220;19.888;2023-10-08T13:13:51;24.06;53.26
72114;SHT31;59989;46.220;19.888;2023-10-08T13:16:54;23.58;54.53
72114;SHT31;59989;46.220;19.888;2023-10-08T13:19:57;23.23;55.23
72114;SHT31;59989;46.220;19.888;2023-10-08T13:23:03;22.94;55.40
72114;SHT31;59989;46.220;19.888;2023-10-08T13:26:07;22.81;55.62
72114;SHT31;59989;46.220;19.888;2023-10-08T13:29:10;22.79;55.42
72114;SHT31;59989;46.220;19.888;2023-10-08T13:32:12;22.58;55.97
72114;SHT31;59989;46.220;19.888;2023-10-08T13:35:19;22.54;56.11
72114;SHT31;59989;46.220;19.888;2023-10-08T13:38:22;22.16;56.41
72114;SHT31;59989;46.220;19.888;2023-10-08T13:41:25;21.94;56.06
72114;SHT31;59989;46.220;19.888;2023-10-08T13:44:32;22.03;56.08
72114;SHT31;59989;46.220;19.888;2023-10-08T13:47:35;22.14;55.77
72114;SHT31;59989;46.220;19.888;2023-10-08T13:50:38;22.41;54.02
72114;SHT31;59989;46.220;19.888;2023-10-08T13:53:48;22.67;52.50
72114;SHT31;59989;46.220;19.888;2023-10-08T13:56:59;22.52;51.37
72114;SHT31;59989;46.220;19.888;2023-10-08T14:00:04;22.61;50.52
72114;SHT31;59989;46.220;19.888;2023-10-08T14:03:15;22.65;49.87
72114;SHT31;59989;46.220;19.888;2023-10-08T14:06:24;22.91;49.60
72114;SHT31;59989;46.220;19.888;2023-10-08T14:09:28;23.05;49.02
72114;SHT31;59989;46.220;19.888;2023-10-08T14:12:34;22.94;49.20
72114;SHT31;59989;46.220;19.888;2023-10-08T14:15:37;23.15;48.78
72114;SHT31;59989;46.220;19.888;2023-10-08T14:18:46;23.10;49.51
72114;SHT31;59989;46.220;19.888;2023-10-08T14:21:56;22.95;50.24
72114;SHT31;59989;46.220;19.888;2023-10-08T14:25:10;22.82;50.45
72114;SHT31;59989;46.220;19.888;2023-10-08T14:28:14;22.52;51.08
72114;SHT31;59989;46.220;19.888;2023-10-08T14:31:24;22.65;50.56
72114;SHT31;59989;46.220;19.888;2023-10-08T14:34:29;22.24;51.26
72114;SHT31;59989;46.220;19.888;2023-10-08T14:37:51;21.73;51.59
72114;SHT31;59989;46.220;19.888;2023-10-08T14:41:13;21.90;52.17
72114;SHT31;59989;46.220;19.888;2023-10-08T14:44:34;21.63;52.29
72114;SHT31;59989;46.220;19.888;2023-10-08T14:47:40;21.45;52.81
72114;SHT31;59989;46.220;19.888;2023-10-08T14:50:44;21.34;53.20
72114;SHT31;59989;46.220;19.888;2023-10-08T14:53:48;20.53;54.46
72114;SHT31;59989;46.220;19.888;2023-10-08T14:56:52;20.07;55.16
72114;SHT31;59989;46.220;19.888;2023-10-08T14:59:54;19.78;55.91
72114;SHT31;59989;46.220;19.888;2023-10-08T15:02:58;19.56;55.70
72114;SHT31;59989;46.220;19.888;2023-10-08T15:06:05;19.40;56.15
72114;SHT31;59989;46.220;19.888;2023-10-08T15:09:10;19.19;56.56
72114;SHT31;59989;46.220;19.888;2023-10-08T15:12:21;18.98;57.04
72114;SHT31;59989;46.220;19.888;2023-10-08T15:15:24;18.87;57.40
72114;SHT31;59989;46.220;19.888;2023-10-08T15:18:27;18.81;57.58
72114;SHT31;59989;46.220;19.888;2023-10-08T15:21:35;18.71;58.31
72114;SHT31;59989;46.220;19.888;2023-10-08T15:24:38;18.61;58.74
72114;SHT31;59989;46.220;19.888;2023-10-08T15:27:43;18.57;58.56
72114;SHT31;59989;46.220;19.888;2023-10-08T15:30:49;18.51;58.50
72114;SHT31;59989;46.220;19.888;2023-10-08T15:33:52;18.50;57.53
72114;SHT31;59989;46.220;19.888;2023-10-08T15:36:56;18.37;57.78
72114;SHT31;59989;46.220;19.888;2023-10-08T15:39:59;18.24;58.36
72114;SHT31;59989;46.220;19.888;2023-10-08T15:43:02;18.18;58.69
72114;SHT31;59989;46.220;19.888;2023-10-08T15:46:06;18.07;58.46
72114;SHT31;59989;46.220;19.888;2023-10-08T15:49:09;17.93;58.60
72114;SHT31;59989;46.220;19.888;2023-10-08T15:52:13;17.79;58.75
72114;SHT31;59989;46.220;19.888;2023-10-08T15:55:17;17.71;58.83
72114;SHT31;59989;46.220;19.888;2023-10-08T15:58:21;17.61;58.57
72114;SHT31;59989;46.220;19.888;2023-10-08T16:01:24;17.55;58.96
72114;SHT31;59989;46.220;19.888;2023-10-08T16:04:30;17.44;58.86
72114;SHT31;59989;46.220;19.888;2023-10-08T16:07:33;17.32;58.66
72114;SHT31;59989;46.220;19.888;2023-10-08T16:10:36;17.31;58.70
72114;SHT31;59989;46.220;19.888;2023-10-08T16:13:39;17.21;58.63
72114;SHT31;59989;46.220;19.888;2023-10-08T16:16:43;17.16;58.71
72114;SHT31;59989;46.220;19.888;2023-10-08T16:19:49;17.10;59.06
72114;SHT31;59989;46.220;19.888;2023-10-08T16:22:53;17.04;59.20
72114;SHT31;59989;46.220;19.888;2023-10-08T16:25:57;16.94;59.04
72114;SHT31;59989;46.220;19.888;2023-10-08T16:29:00;16.90;59.11
72114;SHT31;59989;46.220;19.888;2023-10-08T16:32:03;16.81;59.11
72114;SHT31;59989;46.220;19.888;2023-10-08T16:35:07;16.81;59.47
72114;SHT31;59989;46.220;19.888;2023-10-08T16:38:10;16.76;59.51
72114;SHT31;59989;46.220;19.888;2023-10-08T16:41:14;16.73;59.81
72114;SHT31;59989;46.220;19.888;2023-10-08T16:44:17;16.69;60.04
72114;SHT31;59989;46.220;19.888;2023-10-08T16:47:20;16.68;60.17
72114;SHT31;59989;46.220;19.888;2023-10-08T16:50:22;16.61;60.46
72114;SHT31;59989;46.220;19.888;2023-10-08T16:53:25;16.53;60.59
72114;SHT31;59989;46.220;19.888;2023-10-08T16:56:31;16.48;60.72
72114;SHT31;59989;46.220;19.888;2023-10-08T16:59:33;16.41;60.88
72114;SHT31;59989;46.220;19.888;2023-10-08T17:02:40;16.38;60.99
72114;SHT31;59989;46.220;19.888;2023-10-08T17:05:44;16.36;60.95
72114;SHT31;59989;46.220;19.888;2023-10-08T17:08:46;16.28;60.99
72114;SHT31;59989;46.220;19.888;2023-10-08T17:11:49;16.25;61.22
72114;SHT31;59989;46.220;19.888;2023-10-08T17:14:52;16.18;61.43
72114;SHT31;59989;46.220;19.888;2023-10-08T17:17:56;16.18;61.65
72114;SHT31;59989;46.220;19.888;2023-10-08T17:20:59;16.11;62.05
72114;SHT31;59989;46.220;19.888;2023-10-08T17:24:02;16.05;61.88
72114;SHT31;59989;46.220;19.888;2023-10-08T17:27:09;16.00;62.22
72114;SHT31;59989;46.220;19.888;2023-10-08T17:30:17;15.94;62.68
72114;SHT31;59989;46.220;19.888;2023-10-08T17:33:24;15.89;62.87
72114;SHT31;59989;46.220;19.888;2023-10-08T17:36:32;15.84;62.80
72114;SHT31;59989;46.220;19.888;2023-10-08T17:39:35;15.84;62.58
72114;SHT31;59989;46.220;19.888;2023-10-08T17:42:41;15.80;62.56
72114;SHT31;59989;46.220;19.888;2023-10-08T17:45:44;15.76;62.76
72114;SHT31;59989;46.220;19.888;2023-10-08T17:48:49;15.73;63.00
72114;SHT31;59989;46.220;19.888;2023-10-08T17:51:51;15.67;63.00
72114;SHT31;59989;46.220;19.888;2023-10-08T17:54:54;15.63;63.40
72114;SHT31;59989;46.220;19.888;2023-10-08T17:57:58;15.59;63.61
72114;SHT31;59989;46.220;19.888;2023-10-08T18:01:10;15.52;63.76
72114;SHT31;59989;46.220;19.888;2023-10-08T18:04:17;15.49;64.04
72114;SHT31;59989;46.220;19.888;2023-10-08T18:07:24;15.36;63.92
72114;SHT31;59989;46.220;19.888;2023-10-08T18:10:29;15.28;64.25
72114;SHT31;59989;46.220;19.888;2023-10-08T18:13:34;15.19;64.54
72114;SHT31;59989;46.220;19.888;2023-10-08T18:16:43;15.11;64.72
72114;SHT31;59989;46.220;19.888;2023-10-08T18:19:46;15.05;65.05
72114;SHT31;59989;46.220;19.888;2023-10-08T18:22:50;14.92;65.43
72114;SHT31;59989;46.220;19.888;2023-10-08T18:25:53;14.85;65.78
72114;SHT31;59989;46.220;19.888;2023-10-08T18:28:56;14.76;66.13
72114;SHT31;59989;46.220;19.888;2023-10-08T18:31:59;14.61;66.39
72114;SHT31;59989;46.220;19.888;2023-10-08T18:35:04;14.51;66.83
72114;SHT31;59989;46.220;19.888;2023-10-08T18:38:13;14.36;67.39
72114;SHT31;59989;46.220;19.888;2023-10-08T18:41:16;14.32;67.47
72114;SHT31;59989;46.220;19.888;2023-10-08T18:44:19;14.20;67.77
72114;SHT31;59989;46.220;19.888;2023-10-08T18:47:22;14.12;68.52
72114;SHT31;59989;46.220;19.888;2023-10-08T18:50:27;13.94;68.88
72114;SHT31;59989;46.220;19.888;2023-10-08T18:53:30;13.89;68.91
72114;SHT31;59989;46.220;19.888;2023-10-08T18:56:34;13.81;69.07
72114;SHT31;59989;46.220;19.888;2023-10-08T18:59:37;13.72;69.48
72114;SHT31;59989;46.220;19.888;2023-10-08T19:02:40;13.64;69.61
72114;SHT31;59989;46.220;19.888;2023-10-08T19:05:45;13.61;69.27
72114;SHT31;59989;46.220;19.888;2023-10-08T19:08:48;13.58;69.12
72114;SHT31;59989;46.220;19.888;2023-10-08T19:11:51;13.53;69.20
72114;SHT31;59989;46.220;19.888;2023-10-08T19:14:54;13.46;69.46
72114;SHT31;59989;46.220;19.888;2023-10-08T19:17:58;13.37;69.70
72114;SHT31;59989;46.220;19.888;2023-10-08T19:21:08;13.37;69.39
72114;SHT31;59989;46.220;19.888;2023-10-08T19:24:11;13.26;69.68